createdAt,value
2018-01-12T00:00:53.014Z,2.90
2018-01-12T00:03:20.472Z,2.90
2018-01-12T00:05:47.966Z,2.90
2018-01-12T00:08:15.418Z,2.80
2018-01-12T00:10:43.654Z,2.80
2018-01-12T00:13:11.110Z,2.80
2018-01-12T00:15:39.354Z,2.80
2018-01-12T00:18:06.842Z,2.80
2018-01-12T00:20:34.291Z,2.80
2018-01-12T00:23:01.758Z,2.80
2018-01-12T00:25:29.220Z,2.80
2018-01-12T00:27:56.726Z,2.80
2018-01-12T00:30:24.182Z,2.80
2018-01-12T00:32:51.776Z,2.80
2018-01-12T00:35:19.222Z,2.80
2018-01-12T00:37:48.160Z,2.80
2018-01-12T00:40:15.648Z,2.70
2018-01-12T00:42:43.126Z,2.80
2018-01-12T00:45:10.577Z,2.70
2018-01-12T00:47:38.851Z,2.80
2018-01-12T00:50:06.343Z,2.70
2018-01-12T00:52:33.866Z,2.70
2018-01-12T00:55:01.329Z,2.70
2018-01-12T00:57:28.808Z,2.70
2018-01-12T00:59:57.066Z,2.70
2018-01-12T01:02:24.645Z,2.70
2018-01-12T01:04:52.092Z,2.70
2018-01-12T01:07:19.537Z,2.70
2018-01-12T01:09:47.810Z,2.70
2018-01-12T01:12:15.292Z,2.60
2018-01-12T01:14:42.813Z,2.60
2018-01-12T01:17:11.023Z,2.60
2018-01-12T01:19:38.491Z,2.60
2018-01-12T01:22:05.988Z,2.60
2018-01-12T01:24:33.450Z,2.60
2018-01-12T01:27:00.954Z,2.60
2018-01-12T01:29:28.438Z,2.60
2018-01-12T01:31:55.934Z,2.60
2018-01-12T01:34:23.420Z,2.60
2018-01-12T01:36:50.886Z,2.60
2018-01-12T01:39:18.334Z,2.50
2018-01-12T01:41:45.811Z,2.50
2018-01-12T01:44:13.311Z,2.50
2018-01-12T01:46:40.784Z,2.50
2018-01-12T01:49:08.235Z,2.50
2018-01-12T01:51:36.558Z,2.50
2018-01-12T01:54:04.039Z,2.40
2018-01-12T01:56:31.501Z,2.40
2018-01-12T01:58:59.409Z,2.40
2018-01-12T02:01:26.850Z,2.40
2018-01-12T02:03:55.118Z,2.30
2018-01-12T02:06:22.601Z,2.30
2018-01-12T02:08:50.075Z,2.30
2018-01-12T02:11:17.528Z,2.30
2018-01-12T02:13:45.014Z,2.30
2018-01-12T02:16:12.467Z,2.30
2018-01-12T02:18:39.925Z,2.30
2018-01-12T02:21:07.437Z,2.20
2018-01-12T02:23:34.906Z,2.20
2018-01-12T02:26:02.377Z,2.20
2018-01-12T02:28:30.678Z,2.20
2018-01-12T02:30:58.896Z,2.10
2018-01-12T02:33:26.374Z,2.10
2018-01-12T02:35:53.857Z,2.10
2018-01-12T02:38:21.306Z,2.10
2018-01-12T02:40:48.774Z,2.10
2018-01-12T02:43:16.262Z,2.10
2018-01-12T02:45:44.498Z,2.10
2018-01-12T02:48:11.968Z,2.10
2018-01-12T02:50:39.416Z,2.10
2018-01-12T02:53:06.884Z,2.10
2018-01-12T02:55:34.339Z,2.10
2018-01-12T02:58:01.786Z,2.10
2018-01-12T03:00:29.361Z,2.20
2018-01-12T03:02:57.549Z,2.20
2018-01-12T03:05:25.790Z,2.20
2018-01-12T03:07:53.247Z,2.10
2018-01-12T03:10:20.719Z,2.20
2018-01-12T03:12:48.307Z,2.20
2018-01-12T03:15:15.761Z,2.20
2018-01-12T03:17:43.995Z,2.20
2018-01-12T03:20:11.482Z,2.10
2018-01-12T03:22:38.938Z,2.20
2018-01-12T03:25:06.420Z,2.20
2018-01-12T03:27:33.875Z,2.20
2018-01-12T03:30:02.133Z,2.20
2018-01-12T03:32:29.602Z,2.20
2018-01-12T03:34:57.114Z,2.20
2018-01-12T03:37:25.403Z,2.20
2018-01-12T03:39:52.947Z,2.20
2018-01-12T03:42:20.434Z,2.20
2018-01-12T03:44:47.897Z,2.10
2018-01-12T03:47:15.398Z,2.20
2018-01-12T03:49:42.858Z,2.20
2018-01-12T03:52:10.314Z,2.10
2018-01-12T03:54:38.542Z,2.20
2018-01-12T03:57:06.006Z,2.10
2018-01-12T03:59:33.495Z,2.20
2018-01-12T04:02:00.934Z,2.10
2018-01-12T04:04:28.424Z,2.20
2018-01-12T04:06:55.883Z,2.10
2018-01-12T04:09:23.358Z,2.10
2018-01-12T04:11:51.596Z,2.10
2018-01-12T04:14:20.098Z,2.20
2018-01-12T04:16:48.342Z,2.10
2018-01-12T04:19:15.817Z,2.10
2018-01-12T04:21:43.300Z,2.10
2018-01-12T04:24:10.825Z,2.10
2018-01-12T04:26:38.226Z,2.10
2018-01-12T04:29:05.706Z,2.10
2018-01-12T04:31:33.214Z,2.10
2018-01-12T04:34:00.667Z,2.10
2018-01-12T04:36:28.148Z,2.10
2018-01-12T04:38:55.647Z,2.10
2018-01-12T04:41:23.123Z,2.10
2018-01-12T04:43:50.593Z,2.10
2018-01-12T04:46:18.077Z,2.10
2018-01-12T04:48:45.550Z,2.10
2018-01-12T04:51:13.075Z,2.10
2018-01-12T04:53:40.586Z,2.10
2018-01-12T04:56:08.852Z,2.10
2018-01-12T04:58:36.300Z,2.10
2018-01-12T05:01:03.793Z,2.10
2018-01-12T05:03:31.255Z,2.10
2018-01-12T05:05:58.757Z,2.10
2018-01-12T05:08:26.230Z,2.10
2018-01-12T05:10:53.723Z,2.10
2018-01-12T05:13:21.217Z,2.10
2018-01-12T05:15:48.683Z,2.10
2018-01-12T05:18:16.147Z,2.10
2018-01-12T05:20:43.639Z,2.10
2018-01-12T05:23:11.088Z,2.10
2018-01-12T05:25:38.571Z,2.10
2018-01-12T05:28:06.011Z,2.10
2018-01-12T05:30:33.465Z,2.10
2018-01-12T05:33:00.914Z,2.10
2018-01-12T05:35:28.391Z,2.10
2018-01-12T05:37:55.900Z,2.10
2018-01-12T05:40:23.371Z,2.10
2018-01-12T05:42:50.834Z,2.10
2018-01-12T05:45:18.315Z,2.10
2018-01-12T05:47:45.766Z,2.10
2018-01-12T05:50:13.985Z,2.10
2018-01-12T05:52:41.480Z,2.10
2018-01-12T05:55:08.942Z,2.10
2018-01-12T05:57:36.486Z,2.10
2018-01-12T06:00:03.944Z,2.10
2018-01-12T06:02:43.321Z,2.10
2018-01-12T06:05:22.654Z,2.10
2018-01-12T06:07:50.107Z,2.10
2018-01-12T06:10:17.556Z,2.10
2018-01-12T06:12:45.031Z,2.10
2018-01-12T06:15:12.536Z,2.10
2018-01-12T06:17:40.014Z,2.10
2018-01-12T06:20:08.261Z,2.10
2018-01-12T06:22:35.722Z,2.00
2018-01-12T06:25:03.215Z,2.00
2018-01-12T06:27:30.646Z,2.00
2018-01-12T06:29:58.136Z,2.00
2018-01-12T06:32:25.717Z,2.00
2018-01-12T06:34:53.170Z,2.00
2018-01-12T06:37:20.614Z,2.00
2018-01-12T06:39:48.067Z,2.00
2018-01-12T06:42:15.522Z,2.00
2018-01-12T06:44:42.994Z,2.00
2018-01-12T06:47:10.437Z,2.00
2018-01-12T06:49:37.903Z,2.00
2018-01-12T06:52:05.393Z,2.00
2018-01-12T06:54:32.838Z,2.00
2018-01-12T06:57:00.289Z,2.00
2018-01-12T06:59:27.798Z,2.00
2018-01-12T07:01:55.248Z,2.00
2018-01-12T07:04:22.727Z,2.00
2018-01-12T07:06:50.187Z,2.00
2018-01-12T07:09:18.424Z,2.00
2018-01-12T07:11:45.887Z,2.00
2018-01-12T07:14:13.379Z,2.00
2018-01-12T07:16:40.817Z,2.00
2018-01-12T07:19:08.298Z,2.00
2018-01-12T07:21:47.426Z,2.00
2018-01-12T07:24:14.902Z,2.00
2018-01-12T07:26:42.354Z,2.00
2018-01-12T07:29:09.830Z,2.00
2018-01-12T07:31:37.323Z,2.00
2018-01-12T07:34:04.783Z,2.00
2018-01-12T07:36:32.290Z,2.00
2018-01-12T07:39:00.507Z,2.00
2018-01-12T07:41:27.990Z,2.00
2018-01-12T07:43:55.446Z,2.00
2018-01-12T07:46:22.916Z,2.00
2018-01-12T07:48:50.375Z,2.00
2018-01-12T07:51:17.882Z,2.10
2018-01-12T07:53:45.322Z,2.10
2018-01-12T07:56:12.770Z,2.10
2018-01-12T07:58:40.276Z,2.10
2018-01-12T08:01:13.417Z,2.10
2018-01-12T08:03:40.920Z,2.10
2018-01-12T08:06:09.137Z,2.10
2018-01-12T08:08:36.617Z,2.10
2018-01-12T08:11:04.054Z,2.10
2018-01-12T08:13:31.523Z,2.10
2018-01-12T08:15:59.054Z,2.10
2018-01-12T08:18:26.499Z,2.10
2018-01-12T08:20:54.067Z,2.10
2018-01-12T08:23:21.510Z,2.10
2018-01-12T08:25:49.722Z,2.20
2018-01-12T08:28:17.201Z,2.10
2018-01-12T08:30:44.646Z,2.10
2018-01-12T08:33:12.159Z,2.20
2018-01-12T08:35:39.638Z,2.20
2018-01-12T08:38:07.142Z,2.20
2018-01-12T08:40:34.578Z,2.20
2018-01-12T08:43:02.090Z,2.20
2018-01-12T08:45:29.752Z,2.20
2018-01-12T08:47:57.962Z,2.20
2018-01-12T08:50:25.446Z,2.20
2018-01-12T08:52:52.963Z,2.20
2018-01-12T08:55:20.439Z,2.20
2018-01-12T08:57:47.907Z,2.20
2018-01-12T09:00:15.423Z,2.20
2018-01-12T09:02:42.867Z,2.20
2018-01-12T09:05:10.334Z,2.30
2018-01-12T09:07:38.562Z,2.30
2018-01-12T09:10:06.040Z,2.20
2018-01-12T09:12:33.478Z,2.30
2018-01-12T09:15:06.763Z,2.30
2018-01-12T09:17:46.138Z,2.30
2018-01-12T09:20:18.476Z,2.30
2018-01-12T09:22:48.090Z,2.30
2018-01-12T09:25:26.085Z,2.30
2018-01-12T09:27:53.547Z,2.30
2018-01-12T09:30:21.008Z,2.30
2018-01-12T09:32:50.091Z,2.30
2018-01-12T09:35:17.560Z,2.30
2018-01-12T09:37:45.023Z,2.30
2018-01-12T09:40:32.099Z,2.30
2018-01-12T09:43:00.369Z,2.30
2018-01-12T09:45:27.852Z,2.30
2018-01-12T09:48:07.298Z,2.40
2018-01-12T09:50:34.801Z,2.40
2018-01-12T09:53:03.031Z,2.40
2018-01-12T09:55:31.389Z,2.40
2018-01-12T09:57:58.855Z,2.40
2018-01-12T10:00:28.259Z,2.40
2018-01-12T10:02:55.752Z,2.40
2018-01-12T10:05:23.191Z,2.40
2018-01-12T10:21:41.589Z,2.40
2018-01-12T10:24:09.043Z,2.50
2018-01-12T10:26:36.502Z,2.40
2018-01-12T10:29:06.715Z,2.40
2018-01-12T10:31:45.962Z,2.50
2018-01-12T10:34:13.440Z,2.50
2018-01-12T10:37:02.566Z,2.50
2018-01-12T10:39:30.064Z,2.40
2018-01-12T10:42:04.191Z,2.50
2018-01-12T10:44:31.689Z,2.50
2018-01-12T10:47:29.630Z,2.50
2018-01-12T10:52:57.646Z,2.50
2018-01-12T10:55:25.125Z,2.50
2018-01-12T10:57:52.622Z,2.50
2018-01-12T11:00:31.282Z,2.50
2018-01-12T11:02:58.792Z,2.50
2018-01-12T11:05:26.250Z,2.50
2018-01-12T11:07:53.710Z,2.50
2018-01-12T11:10:21.174Z,2.50
2018-01-12T11:12:48.638Z,2.50
2018-01-12T11:15:16.853Z,2.50
2018-01-12T11:17:44.319Z,2.50
2018-01-12T11:20:12.608Z,2.50
2018-01-12T11:22:40.080Z,2.50
2018-01-12T11:25:07.618Z,2.50
2018-01-12T11:27:35.097Z,2.50
2018-01-12T11:30:02.594Z,2.50
2018-01-12T11:32:31.811Z,2.50
2018-01-12T11:34:59.277Z,2.50
2018-01-12T11:37:26.763Z,2.50
2018-01-12T11:39:54.214Z,2.50
2018-01-12T11:42:21.676Z,2.50
2018-01-12T11:44:49.932Z,2.50
2018-01-12T11:47:17.384Z,2.50
2018-01-12T11:49:44.868Z,2.50
2018-01-12T11:52:12.351Z,2.50
2018-01-12T11:54:39.833Z,2.50
2018-01-12T11:57:07.319Z,2.50
2018-01-12T11:59:34.847Z,2.50
2018-01-12T12:02:02.287Z,2.50
2018-01-12T12:04:29.751Z,2.50
2018-01-12T12:06:57.258Z,2.50
2018-01-12T12:09:25.571Z,2.50
2018-01-12T12:11:53.821Z,2.50
2018-01-12T12:14:21.402Z,2.50
2018-01-12T12:16:48.872Z,2.50
2018-01-12T12:19:16.386Z,2.50
2018-01-12T12:21:43.871Z,2.50
2018-01-12T12:24:11.378Z,2.50
2018-01-12T12:26:38.845Z,2.50
2018-01-12T12:29:06.311Z,2.50
2018-01-12T12:31:33.819Z,2.50
2018-01-12T12:34:01.328Z,2.50
2018-01-12T12:36:29.565Z,2.50
2018-01-12T12:38:57.073Z,2.50
2018-01-12T12:41:24.620Z,2.50
2018-01-12T12:43:52.139Z,2.50
2018-01-12T12:46:19.619Z,2.40
2018-01-12T12:48:47.081Z,2.50
2018-01-12T12:51:14.684Z,2.40
2018-01-12T12:53:42.179Z,2.40
2018-01-12T12:56:10.426Z,2.40
2018-01-12T12:58:37.973Z,2.40
2018-01-12T13:01:06.230Z,2.40
2018-01-12T13:03:33.696Z,2.40
2018-01-12T13:06:01.198Z,2.40
2018-01-12T13:08:28.665Z,2.40
2018-01-12T13:10:56.118Z,2.40
2018-01-12T13:13:23.599Z,2.40
2018-01-12T13:15:51.098Z,2.40
2018-01-12T13:18:18.623Z,2.40
2018-01-12T13:20:46.953Z,2.40
2018-01-12T13:23:14.437Z,2.40
2018-01-12T13:25:42.519Z,2.40
2018-01-12T13:28:10.034Z,2.40
2018-01-12T13:30:37.609Z,2.50
2018-01-12T13:33:05.538Z,2.40
2018-01-12T13:35:33.014Z,2.50
2018-01-12T13:38:00.527Z,2.50
2018-01-12T13:40:28.758Z,2.40
2018-01-12T13:42:56.257Z,2.40
2018-01-12T13:45:23.804Z,2.40
2018-01-12T13:47:51.295Z,2.40
2018-01-12T13:50:19.823Z,2.40
2018-01-12T13:52:47.774Z,2.40
2018-01-12T13:55:15.972Z,2.40
2018-01-12T13:57:43.433Z,2.40
2018-01-12T14:00:10.962Z,2.40
2018-01-12T14:02:38.428Z,2.40
2018-01-12T14:05:05.918Z,2.40
2018-01-12T14:07:33.414Z,2.40
2018-01-12T14:10:00.910Z,2.40
2018-01-12T14:12:28.385Z,2.40
2018-01-12T14:14:55.897Z,2.40
2018-01-12T14:17:23.376Z,2.40
2018-01-12T14:19:50.841Z,2.40
2018-01-12T14:22:19.122Z,2.40
2018-01-12T14:24:46.588Z,2.40
2018-01-12T14:27:14.054Z,2.40
2018-01-12T14:29:41.534Z,2.40
2018-01-12T14:32:09.051Z,2.30
2018-01-12T14:34:36.510Z,2.40
2018-01-12T14:37:03.967Z,2.30
2018-01-12T14:39:31.483Z,2.30
2018-01-12T14:41:58.973Z,2.30
2018-01-12T14:44:26.537Z,2.30
2018-01-12T14:46:54.062Z,2.40
2018-01-12T14:49:21.555Z,2.30
2018-01-12T14:51:49.423Z,2.30
2018-01-12T14:54:17.651Z,2.30
2018-01-12T14:56:45.143Z,2.30
2018-01-12T14:59:12.619Z,2.30
2018-01-12T15:01:40.120Z,2.30
2018-01-12T15:04:07.642Z,2.30
2018-01-12T15:06:35.947Z,2.20
2018-01-12T15:09:03.464Z,2.20
2018-01-12T15:11:30.905Z,2.20
2018-01-12T15:13:59.054Z,2.30
2018-01-12T15:16:27.024Z,2.20
2018-01-12T15:18:55.804Z,2.20
2018-01-12T15:21:23.838Z,2.20
2018-01-12T15:23:52.396Z,2.20
2018-01-12T15:26:20.594Z,2.20
2018-01-12T15:28:48.635Z,2.20
2018-01-12T15:31:16.123Z,2.20
2018-01-12T15:33:44.396Z,2.20
2018-01-12T15:36:12.459Z,2.20
2018-01-12T15:38:40.118Z,2.20
2018-01-12T15:41:08.038Z,2.20
2018-01-12T15:43:36.531Z,2.20
2018-01-12T15:46:05.018Z,2.20
2018-01-12T15:48:34.201Z,2.20
2018-01-12T15:51:01.709Z,2.10
2018-01-12T15:53:31.368Z,2.20
2018-01-12T15:55:58.840Z,2.10
2018-01-12T15:58:27.733Z,2.20
2018-01-12T16:00:55.190Z,2.20
2018-01-12T16:03:27.379Z,2.10
2018-01-12T16:05:55.104Z,2.10
2018-01-12T16:08:23.839Z,2.10
2018-01-12T16:10:51.514Z,2.10
2018-01-12T16:13:20.611Z,2.10
2018-01-12T16:15:50.625Z,2.10
2018-01-12T16:18:19.425Z,2.10
2018-01-12T16:20:47.813Z,2.10
2018-01-12T16:23:15.290Z,2.10
2018-01-12T16:25:43.589Z,2.10
2018-01-12T16:28:11.435Z,2.10
2018-01-12T16:30:38.909Z,2.10
2018-01-12T16:33:08.503Z,2.10
2018-01-12T16:35:37.751Z,2.10
2018-01-12T16:38:06.561Z,2.10
2018-01-12T16:40:35.999Z,2.00
2018-01-12T16:43:04.937Z,2.00
2018-01-12T16:45:34.017Z,2.00
2018-01-12T16:48:02.267Z,2.10
2018-01-12T16:50:30.755Z,2.00
2018-01-12T16:52:59.727Z,2.00
2018-01-12T16:55:28.527Z,2.00
2018-01-12T16:57:56.795Z,2.00
2018-01-12T17:00:24.783Z,2.00
2018-01-12T17:02:54.595Z,2.00
2018-01-12T17:05:23.240Z,2.00
2018-01-12T17:07:53.104Z,2.00
2018-01-12T17:10:21.714Z,2.00
2018-01-12T17:12:56.529Z,2.00
2018-01-12T17:15:25.379Z,2.00
2018-01-12T17:17:56.342Z,2.00
2018-01-12T17:20:25.270Z,2.00
2018-01-12T17:22:57.178Z,2.00
2018-01-12T17:25:26.515Z,2.00
2018-01-12T17:27:57.085Z,2.00
2018-01-12T17:30:26.928Z,2.00
2018-01-12T17:32:55.723Z,2.00
2018-01-12T17:35:25.280Z,2.00
2018-01-12T17:37:57.143Z,2.00
2018-01-12T17:40:27.442Z,2.00
2018-01-12T17:42:59.018Z,2.00
2018-01-12T17:45:29.256Z,2.00
2018-01-12T17:47:58.392Z,2.00
2018-01-12T17:50:27.104Z,1.90
2018-01-12T17:52:55.149Z,2.00
2018-01-12T17:55:25.347Z,1.90
2018-01-12T17:57:54.275Z,1.90
2018-01-12T18:00:24.119Z,1.90
2018-01-12T18:02:52.891Z,1.90
2018-01-12T18:05:25.864Z,1.90
2018-01-12T18:07:56.781Z,1.90
2018-01-12T18:10:24.946Z,1.90
2018-01-12T18:12:53.649Z,1.90
2018-01-12T18:15:24.023Z,1.90
2018-01-12T18:17:54.403Z,1.90
2018-01-12T18:20:24.033Z,1.90
2018-01-12T18:22:53.953Z,1.90
2018-01-12T18:25:23.865Z,1.90
2018-01-12T18:27:51.897Z,1.90
2018-01-12T18:30:21.249Z,1.90
2018-01-12T18:32:50.564Z,1.90
2018-01-12T18:35:21.079Z,1.90
2018-01-12T18:37:49.449Z,1.80
2018-01-12T18:40:18.600Z,1.90
2018-01-12T18:42:46.434Z,1.90
2018-01-12T18:45:14.319Z,1.90
2018-01-12T18:47:43.836Z,1.80
2018-01-12T18:50:12.156Z,1.80
2018-01-12T18:52:40.131Z,1.80
2018-01-12T18:55:08.435Z,1.80
2018-01-12T18:57:35.960Z,1.80
2018-01-12T19:00:06.645Z,1.80
2018-01-12T19:02:34.364Z,1.80
2018-01-12T19:05:03.338Z,1.80
2018-01-12T19:07:31.762Z,1.80
2018-01-12T19:10:00.064Z,1.80
2018-01-12T19:12:27.864Z,1.80
2018-01-12T19:14:55.352Z,1.80
2018-01-12T19:17:22.850Z,1.80
2018-01-12T19:19:51.350Z,1.80
2018-01-12T19:22:18.883Z,1.80
2018-01-12T19:24:47.162Z,1.80
2018-01-12T19:27:14.630Z,1.80
2018-01-12T19:29:42.143Z,1.80
2018-01-12T19:32:10.511Z,1.80
2018-01-12T19:34:38.029Z,1.80
2018-01-12T19:37:06.268Z,1.80
2018-01-12T19:39:34.699Z,1.80
2018-01-12T19:42:05.359Z,1.80
2018-01-12T19:44:34.051Z,1.70
2018-01-12T19:47:03.230Z,1.70
2018-01-12T19:49:31.742Z,1.70
2018-01-12T19:52:02.023Z,1.80
2018-01-12T19:54:31.935Z,1.70
2018-01-12T19:56:59.964Z,1.80
2018-01-12T19:59:29.490Z,1.70
2018-01-12T20:01:57.767Z,1.70
2018-01-12T20:04:25.279Z,1.70
2018-01-12T20:06:53.877Z,1.70
2018-01-12T20:09:22.247Z,1.70
2018-01-12T20:11:49.755Z,1.70
2018-01-12T20:14:20.172Z,1.70
2018-01-12T20:16:47.655Z,1.60
2018-01-12T20:19:17.636Z,1.60
2018-01-12T20:21:47.858Z,1.70
2018-01-12T20:24:17.665Z,1.70
2018-01-12T20:26:45.149Z,1.60
2018-01-12T20:29:12.705Z,1.60
2018-01-12T20:31:40.200Z,1.60
2018-01-12T20:34:08.303Z,1.60
2018-01-12T20:36:36.084Z,1.60
2018-01-12T20:39:07.710Z,1.60
2018-01-12T20:41:35.967Z,1.60
2018-01-12T20:44:04.220Z,1.60
2018-01-12T20:46:32.392Z,1.60
2018-01-12T20:48:59.877Z,1.60
2018-01-12T20:51:30.037Z,1.60
2018-01-12T20:53:58.940Z,1.60
2018-01-12T20:56:26.420Z,1.60
2018-01-12T20:58:54.006Z,1.60
2018-01-12T21:01:21.487Z,1.60
2018-01-12T21:03:48.948Z,1.60
2018-01-12T21:06:19.099Z,1.60
2018-01-12T21:08:46.651Z,1.60
2018-01-12T21:11:14.898Z,1.60
2018-01-12T21:13:43.203Z,1.60
2018-01-12T21:16:10.722Z,1.60
2018-01-12T21:18:39.085Z,1.60
2018-01-12T21:21:06.564Z,1.60
2018-01-12T21:23:34.515Z,1.60
2018-01-12T21:26:01.983Z,1.60
2018-01-12T21:28:30.281Z,1.60
2018-01-12T21:30:57.775Z,1.60
2018-01-12T21:33:25.267Z,1.60
2018-01-12T21:35:52.800Z,1.60
2018-01-12T21:38:23.260Z,1.60
2018-01-12T21:40:50.776Z,1.60
2018-01-12T21:43:18.249Z,1.60
2018-01-12T21:45:46.071Z,1.60
2018-01-12T21:48:13.559Z,1.60
2018-01-12T21:50:41.315Z,1.60
2018-01-12T21:53:08.811Z,1.70
2018-01-12T21:55:36.306Z,1.60
2018-01-12T21:58:03.775Z,1.60
2018-01-12T22:00:31.650Z,1.70
2018-01-12T22:03:01.112Z,1.70
2018-01-12T22:05:29.945Z,1.70
2018-01-12T22:07:59.061Z,1.70
2018-01-12T22:10:27.759Z,1.70
2018-01-12T22:12:55.262Z,1.70
2018-01-12T22:15:23.562Z,1.70
2018-01-12T22:17:51.079Z,1.70
2018-01-12T22:20:18.576Z,1.70
2018-01-12T22:22:46.109Z,1.70
2018-01-12T22:25:13.574Z,1.70
2018-01-12T22:27:41.795Z,1.70
2018-01-12T22:30:09.293Z,1.70
2018-01-12T22:32:36.752Z,1.70
2018-01-12T22:35:04.222Z,1.70
2018-01-12T22:37:32.796Z,1.70
2018-01-12T22:40:00.305Z,1.70
2018-01-12T22:42:28.820Z,1.70
2018-01-12T22:44:57.063Z,1.70
2018-01-12T22:47:24.560Z,1.70
2018-01-12T22:49:52.030Z,1.70
2018-01-12T22:52:19.543Z,1.70
2018-01-12T22:54:47.767Z,1.70
2018-01-12T22:57:15.257Z,1.70
2018-01-12T22:59:42.743Z,1.70
2018-01-12T23:02:10.228Z,1.70
2018-01-12T23:04:37.708Z,1.70
2018-01-12T23:07:05.200Z,1.70
2018-01-12T23:09:32.676Z,1.70
2018-01-12T23:12:00.133Z,1.70
2018-01-12T23:14:27.679Z,1.80
2018-01-12T23:16:55.168Z,1.70
2018-01-12T23:19:22.652Z,1.70
2018-01-12T23:21:50.887Z,1.70
2018-01-12T23:24:18.375Z,1.70
2018-01-12T23:26:45.839Z,1.70
2018-01-12T23:31:54.191Z,1.70
2018-01-12T23:34:21.653Z,1.70
2018-01-12T23:36:49.134Z,1.70
2018-01-12T23:39:16.602Z,1.70
2018-01-12T23:41:44.838Z,1.70
2018-01-12T23:44:12.343Z,1.70
2018-01-12T23:46:39.805Z,1.70
2018-01-12T23:49:07.274Z,1.70
2018-01-12T23:51:34.737Z,1.80
2018-01-12T23:54:02.192Z,1.70
2018-01-12T23:56:30.403Z,1.70
2018-01-12T23:58:57.982Z,1.70
